createdAt,value
2019-04-25T00:01:14.217Z,0.53
2019-04-25T00:03:43.692Z,0.60
2019-04-25T00:06:13.375Z,0.90
2019-04-25T00:08:43.052Z,0.63
2019-04-25T00:11:12.304Z,0.50
2019-04-25T00:13:41.936Z,0.60
2019-04-25T00:16:11.600Z,0.50
2019-04-25T00:18:41.936Z,0.60
2019-04-25T00:21:12.261Z,0.50
2019-04-25T00:23:42.966Z,0.83
2019-04-25T00:26:26.022Z,0.60
2019-04-25T00:28:54.879Z,0.50
2019-04-25T00:31:25.926Z,0.50
2019-04-25T00:33:53.568Z,0.50
2019-04-25T00:36:22.272Z,0.67
2019-04-25T00:38:52.326Z,0.70
2019-04-25T00:41:21.363Z,0.73
2019-04-25T00:43:51.408Z,0.83
2019-04-25T00:46:20.216Z,0.80
2019-04-25T00:48:48.663Z,0.83
2019-04-25T00:51:17.600Z,0.80
2019-04-25T00:53:46.142Z,0.50
2019-04-25T00:56:14.843Z,0.83
2019-04-25T00:58:57.029Z,0.70
2019-04-25T01:01:31.699Z,1.20
2019-04-25T01:04:00.245Z,0.60
2019-04-25T01:06:28.756Z,0.50
2019-04-25T01:08:57.273Z,0.73
2019-04-25T01:11:25.861Z,0.70
2019-04-25T01:13:54.464Z,0.60
2019-04-25T01:16:22.862Z,0.93
2019-04-25T01:18:51.307Z,0.70
2019-04-25T01:21:19.856Z,0.57
2019-04-25T01:23:48.369Z,0.50
2019-04-25T01:26:16.985Z,0.60
2019-04-25T01:28:46.190Z,0.80
2019-04-25T01:31:16.804Z,0.77
2019-04-25T01:33:46.656Z,0.70
2019-04-25T01:36:20.050Z,0.60
2019-04-25T01:38:59.060Z,0.50
2019-04-25T01:41:29.266Z,0.70
2019-04-25T01:44:04.408Z,0.60
2019-04-25T01:46:34.192Z,0.70
2019-04-25T01:49:04.228Z,0.70
2019-04-25T01:51:33.921Z,0.70
2019-04-25T01:54:03.989Z,1.10
2019-04-25T01:56:33.296Z,1.30
2019-04-25T01:59:01.871Z,0.93
2019-04-25T02:01:30.973Z,0.70
2019-04-25T02:03:59.497Z,0.73
2019-04-25T02:06:28.148Z,0.90
2019-04-25T02:08:57.220Z,0.90
2019-04-25T02:11:43.843Z,0.97
2019-04-25T02:14:13.714Z,1.03
2019-04-25T02:16:43.963Z,0.90
2019-04-25T02:19:14.394Z,0.90
2019-04-25T02:21:43.487Z,0.60
2019-04-25T02:24:13.603Z,0.60
2019-04-25T02:26:43.805Z,0.80
2019-04-25T02:29:13.684Z,0.80
2019-04-25T02:31:44.773Z,0.60
2019-04-25T02:34:17.544Z,0.93
2019-04-25T02:36:44.334Z,0.73
2019-04-25T02:39:17.964Z,0.57
2019-04-25T02:41:46.656Z,1.40
2019-04-25T02:44:15.294Z,0.90
2019-04-25T02:46:57.582Z,0.93
2019-04-25T02:49:36.890Z,1.33
2019-04-25T02:52:11.079Z,1.47
2019-04-25T02:54:37.326Z,1.50
2019-04-25T02:57:08.038Z,2.07
2019-04-25T02:59:36.951Z,1.73
2019-04-25T03:02:08.734Z,1.60
2019-04-25T03:04:37.099Z,1.10
2019-04-25T03:07:08.124Z,1.53
2019-04-25T03:09:36.081Z,2.20
2019-04-25T03:12:06.495Z,1.30
2019-04-25T03:14:35.419Z,1.73
2019-04-25T03:17:05.231Z,1.20
2019-04-25T03:19:39.234Z,2.43
2019-04-25T03:22:20.936Z,2.20
2019-04-25T03:24:49.447Z,1.70
2019-04-25T03:27:17.888Z,1.67
2019-04-25T03:29:46.364Z,1.70
2019-04-25T03:32:19.647Z,1.50
2019-04-25T03:34:45.057Z,1.93
2019-04-25T03:37:13.874Z,1.77
2019-04-25T03:39:43.638Z,1.50
2019-04-25T03:42:14.029Z,1.23
2019-04-25T03:44:43.838Z,2.37
2019-04-25T03:47:13.561Z,2.30
2019-04-25T03:49:43.459Z,2.00
2019-04-25T03:52:14.200Z,2.10
2019-04-25T03:54:43.399Z,2.07
2019-04-25T03:57:14.342Z,1.90
2019-04-25T03:59:43.697Z,1.83
2019-04-25T04:02:13.536Z,1.80
2019-04-25T04:04:43.530Z,1.20
2019-04-25T04:07:12.768Z,2.00
2019-04-25T04:09:43.519Z,2.60
2019-04-25T04:12:12.354Z,1.87
2019-04-25T04:14:40.869Z,2.27
2019-04-25T04:17:28.775Z,1.93
2019-04-25T04:20:01.509Z,2.57
2019-04-25T04:22:40.202Z,3.03
2019-04-25T04:25:10.464Z,2.70
2019-04-25T04:27:38.918Z,2.50
2019-04-25T04:30:10.204Z,2.60
2019-04-25T04:32:38.760Z,3.63
2019-04-25T04:35:07.459Z,3.30
2019-04-25T04:37:35.912Z,2.70
2019-04-25T04:40:07.905Z,2.80
2019-04-25T04:42:36.526Z,2.83
2019-04-25T04:45:05.909Z,2.53
2019-04-25T04:47:34.913Z,3.10
2019-04-25T04:50:03.922Z,2.90
2019-04-25T04:52:33.989Z,2.93
2019-04-25T04:55:06.395Z,3.40
2019-04-25T04:57:35.970Z,2.80
2019-04-25T05:00:03.912Z,3.10
2019-04-25T05:02:37.288Z,3.80
2019-04-25T05:05:15.885Z,3.97
2019-04-25T05:07:58.534Z,3.87
2019-04-25T05:10:27.067Z,2.97
2019-04-25T05:12:55.583Z,3.37
2019-04-25T05:15:24.820Z,3.47
2019-04-25T05:17:54.253Z,3.67
2019-04-25T05:20:24.162Z,3.40
2019-04-25T05:22:55.001Z,3.40
2019-04-25T05:25:24.743Z,3.73
2019-04-25T05:28:02.127Z,3.67
2019-04-25T05:30:26.579Z,3.60
2019-04-25T05:32:55.144Z,3.87
2019-04-25T05:35:24.421Z,3.67
2019-04-25T05:37:53.925Z,3.70
2019-04-25T05:40:24.098Z,3.87
2019-04-25T05:43:03.400Z,4.13
2019-04-25T05:45:34.049Z,4.17
2019-04-25T05:48:05.757Z,4.03
2019-04-25T05:50:33.891Z,5.23
2019-04-25T05:53:04.174Z,4.20
2019-04-25T05:55:34.154Z,3.80
2019-04-25T05:58:03.847Z,4.20
2019-04-25T06:00:34.110Z,4.13
2019-04-25T06:03:03.575Z,3.53
2019-04-25T06:05:33.518Z,3.77
2019-04-25T06:08:04.092Z,3.10
2019-04-25T06:10:36.927Z,4.13
2019-04-25T06:13:13.803Z,3.37
2019-04-25T06:15:44.115Z,3.50
2019-04-25T06:18:14.477Z,3.90
2019-04-25T06:20:44.308Z,4.53
2019-04-25T06:23:24.567Z,3.50
2019-04-25T06:25:54.251Z,4.10
2019-04-25T06:28:24.875Z,4.40
2019-04-25T06:30:54.106Z,3.40
2019-04-25T06:33:24.549Z,3.97
2019-04-25T06:35:52.895Z,4.67
2019-04-25T06:38:24.885Z,3.43
2019-04-25T06:40:51.675Z,3.57
2019-04-25T06:43:20.195Z,3.77
2019-04-25T06:45:50.394Z,3.63
2019-04-25T06:48:21.217Z,3.00
2019-04-25T06:50:49.842Z,3.13
2019-04-25T06:53:18.520Z,3.20
2019-04-25T06:55:47.089Z,2.83
2019-04-25T06:58:15.569Z,3.30
2019-04-25T07:00:57.482Z,2.57
2019-04-25T07:03:15.617Z,3.20
2019-04-25T07:05:44.177Z,3.20
2019-04-25T07:08:13.292Z,2.60
2019-04-25T07:10:41.877Z,2.60
2019-04-25T07:13:10.402Z,2.97
2019-04-25T07:15:39.029Z,3.00
2019-04-25T07:18:07.477Z,2.20
2019-04-25T07:20:36.070Z,1.90
2019-04-25T07:23:05.366Z,1.80
2019-04-25T07:25:36.641Z,2.17
2019-04-25T07:28:27.537Z,1.93
2019-04-25T07:31:04.538Z,2.40
2019-04-25T07:33:43.405Z,1.77
2019-04-25T07:36:11.871Z,2.10
2019-04-25T07:38:40.398Z,1.50
2019-04-25T07:41:10.575Z,1.90
2019-04-25T07:43:39.002Z,1.80
2019-04-25T07:46:07.799Z,1.73
2019-04-25T07:48:37.334Z,2.10
2019-04-25T07:51:06.778Z,1.77
2019-04-25T07:53:36.113Z,2.30
2019-04-25T07:56:05.131Z,1.50
2019-04-25T07:58:49.614Z,1.90
2019-04-25T08:01:11.836Z,1.60
2019-04-25T08:03:40.303Z,1.33
2019-04-25T08:06:08.828Z,1.70
2019-04-25T08:08:38.145Z,1.83
2019-04-25T08:11:09.799Z,2.07
2019-04-25T08:13:40.192Z,1.53
2019-04-25T08:16:19.924Z,2.10
2019-04-25T08:18:50.176Z,1.83
2019-04-25T08:21:18.901Z,2.10
2019-04-25T08:23:48.195Z,2.43
2019-04-25T08:26:16.716Z,1.70
2019-04-25T08:28:54.443Z,2.30
2019-04-25T08:31:15.456Z,2.20
2019-04-25T08:33:46.532Z,1.53
2019-04-25T08:36:14.285Z,2.17
2019-04-25T08:38:44.539Z,1.77
2019-04-25T08:41:14.040Z,1.83
2019-04-25T08:43:43.653Z,1.80
2019-04-25T08:46:13.976Z,1.30
2019-04-25T08:49:02.175Z,1.93
2019-04-25T08:51:34.804Z,1.30
2019-04-25T08:54:04.327Z,1.10
2019-04-25T08:56:35.519Z,1.23
2019-04-25T08:59:34.159Z,1.67
2019-04-25T09:02:01.083Z,1.80
2019-04-25T09:04:35.759Z,1.50
2019-04-25T09:07:05.472Z,1.40
2019-04-25T09:09:35.428Z,1.70
2019-04-25T09:12:04.554Z,1.50
2019-04-25T09:14:35.225Z,1.50
2019-04-25T09:17:03.315Z,1.87
2019-04-25T09:19:31.783Z,1.20
2019-04-25T09:22:00.296Z,1.30
2019-04-25T09:24:28.746Z,1.23
2019-04-25T09:26:57.478Z,1.70
2019-04-25T09:29:25.926Z,1.97
2019-04-25T09:31:54.377Z,1.30
2019-04-25T09:34:23.795Z,1.60
2019-04-25T09:36:53.654Z,2.10
2019-04-25T09:39:23.952Z,1.97
2019-04-25T09:41:53.516Z,2.20
2019-04-25T09:44:32.701Z,1.80
2019-04-25T09:47:01.228Z,2.63
2019-04-25T09:49:31.316Z,2.17
2019-04-25T09:52:03.262Z,2.63
2019-04-25T09:54:43.803Z,2.80
2019-04-25T09:57:33.439Z,3.00
2019-04-25T10:00:03.621Z,2.60
2019-04-25T10:02:32.463Z,2.87
2019-04-25T10:05:00.883Z,2.57
2019-04-25T10:07:29.594Z,2.27
2019-04-25T10:09:58.221Z,3.10
2019-04-25T10:12:26.745Z,2.77
2019-04-25T10:15:15.030Z,2.07
2019-04-25T10:17:44.986Z,2.33
2019-04-25T10:20:15.667Z,3.00
2019-04-25T10:22:45.419Z,2.70
2019-04-25T10:25:14.823Z,3.23
2019-04-25T10:27:46.474Z,2.73
2019-04-25T10:30:19.635Z,2.23
2019-04-25T10:32:46.036Z,2.50
2019-04-25T10:35:15.003Z,2.67
2019-04-25T10:37:45.208Z,3.03
2019-04-25T10:40:15.264Z,2.47
2019-04-25T10:42:47.677Z,2.83
2019-04-25T10:45:23.384Z,2.53
2019-04-25T10:47:46.721Z,3.57
2019-04-25T10:50:15.920Z,2.37
2019-04-25T10:52:46.170Z,2.57
2019-04-25T10:55:15.175Z,2.33
2019-04-25T10:57:45.283Z,2.50
2019-04-25T11:00:44.845Z,2.23
2019-04-25T11:03:14.583Z,1.80
2019-04-25T11:05:43.100Z,2.03
2019-04-25T11:08:11.664Z,2.13
2019-04-25T11:10:40.830Z,2.27
2019-04-25T11:13:09.295Z,1.67
2019-04-25T11:15:39.224Z,2.50
2019-04-25T11:18:07.862Z,1.90
2019-04-25T11:20:39.051Z,1.57
2019-04-25T11:23:07.998Z,1.83
2019-04-25T11:25:36.596Z,1.60
2019-04-25T11:28:08.127Z,1.67
2019-04-25T11:30:36.715Z,2.10
2019-04-25T11:33:05.599Z,2.23
2019-04-25T11:35:34.344Z,2.10
2019-04-25T11:38:05.580Z,1.53
2019-04-25T11:40:38.606Z,1.57
2019-04-25T11:43:07.312Z,2.20
2019-04-25T11:45:38.271Z,2.40
2019-04-25T11:48:06.993Z,2.20
2019-04-25T11:50:37.002Z,2.47
2019-04-25T11:53:05.744Z,1.60
2019-04-25T11:55:34.543Z,2.27
2019-04-25T11:58:03.708Z,1.70
2019-04-25T12:00:33.771Z,1.43
2019-04-25T12:03:03.660Z,1.93
2019-04-25T12:05:32.277Z,1.70
2019-04-25T12:08:00.823Z,1.87
2019-04-25T12:10:30.122Z,2.70
2019-04-25T12:12:58.576Z,2.47
2019-04-25T12:15:27.212Z,1.83
2019-04-25T12:17:55.940Z,1.90
2019-04-25T12:20:24.552Z,1.70
2019-04-25T12:23:04.184Z,2.33
2019-04-25T12:25:23.766Z,2.20
2019-04-25T12:27:53.805Z,1.97
2019-04-25T12:30:36.763Z,1.90
2019-04-25T12:32:53.881Z,2.03
2019-04-25T12:35:24.202Z,1.80
2019-04-25T12:37:54.017Z,1.67
2019-04-25T12:40:24.238Z,2.03
2019-04-25T12:42:52.928Z,1.77
2019-04-25T12:45:28.560Z,1.70
2019-04-25T12:47:59.365Z,2.07
2019-04-25T12:50:28.036Z,1.07
2019-04-25T12:52:56.546Z,1.50
2019-04-25T12:55:25.116Z,1.40
2019-04-25T12:57:55.413Z,1.03
2019-04-25T13:00:25.888Z,1.00
2019-04-25T13:02:54.504Z,0.80
2019-04-25T13:05:24.438Z,0.70
2019-04-25T13:07:56.706Z,0.80
2019-04-25T13:10:23.757Z,1.00
2019-04-25T13:12:55.235Z,0.80
2019-04-25T13:15:25.240Z,0.80
2019-04-25T13:17:53.686Z,0.63
2019-04-25T13:20:22.156Z,0.70
2019-04-25T13:22:50.640Z,0.70
2019-04-25T13:25:20.835Z,0.80
2019-04-25T13:28:09.007Z,0.70
2019-04-25T13:31:04.045Z,2.40
2019-04-25T13:33:43.235Z,0.60
2019-04-25T13:36:13.512Z,0.50
2019-04-25T13:38:43.638Z,0.70
2019-04-25T13:41:12.639Z,0.70
2019-04-25T13:43:42.097Z,0.70
2019-04-25T13:46:11.150Z,0.60
2019-04-25T13:48:41.167Z,0.67
2019-04-25T13:51:09.866Z,0.87
2019-04-25T13:53:38.381Z,1.20
2019-04-25T13:56:07.017Z,0.77
2019-04-25T13:58:35.613Z,0.90
2019-04-25T14:01:12.786Z,0.50
2019-04-25T14:03:35.820Z,1.10
2019-04-25T14:06:05.312Z,0.93
2019-04-25T14:08:33.763Z,0.70
2019-04-25T14:11:04.987Z,0.50
2019-04-25T14:13:32.723Z,0.60
2019-04-25T14:16:08.656Z,0.63
2019-04-25T14:18:55.058Z,0.50
2019-04-25T14:21:24.902Z,0.60
2019-04-25T14:23:54.160Z,1.00
2019-04-25T14:26:23.013Z,0.80
2019-04-25T14:28:51.714Z,0.60
2019-04-25T14:31:35.413Z,0.70
2019-04-25T14:33:51.766Z,0.50
2019-04-25T14:36:20.373Z,0.60
2019-04-25T14:38:48.819Z,0.60
2019-04-25T14:41:17.287Z,0.53
2019-04-25T14:43:46.522Z,0.70
2019-04-25T14:46:15.148Z,0.50
2019-04-25T14:48:43.662Z,0.40
2019-04-25T14:51:12.319Z,0.50
2019-04-25T14:53:40.840Z,1.57
2019-04-25T14:56:15.282Z,1.00
2019-04-25T14:58:45.909Z,0.60
2019-04-25T15:01:16.126Z,0.90
2019-04-25T15:03:44.800Z,0.53
2019-04-25T15:06:13.458Z,0.70
2019-04-25T15:08:41.990Z,0.90
2019-04-25T15:11:10.514Z,0.60
2019-04-25T15:13:39.002Z,0.60
2019-04-25T15:16:07.601Z,0.60
2019-04-25T15:18:46.115Z,0.70
2019-04-25T15:21:06.696Z,0.50
2019-04-25T15:23:35.833Z,1.10
2019-04-25T15:26:04.562Z,0.80
2019-04-25T15:28:33.145Z,0.90
2019-04-25T15:31:01.740Z,0.80
2019-04-25T15:33:30.404Z,0.70
2019-04-25T15:36:15.896Z,0.90
2019-04-25T15:38:51.873Z,0.63
2019-04-25T15:41:25.038Z,1.10
2019-04-25T15:44:11.664Z,0.90
2019-04-25T15:46:41.861Z,0.93
2019-04-25T15:49:10.660Z,0.80
2019-04-25T15:51:39.113Z,0.80
2019-04-25T15:54:07.939Z,0.60
2019-04-25T15:56:36.719Z,0.83
2019-04-25T15:59:05.337Z,0.83
2019-04-25T16:01:34.625Z,0.93
2019-04-25T16:04:03.232Z,1.10
2019-04-25T16:06:31.983Z,0.70
2019-04-25T16:09:00.468Z,0.60
2019-04-25T16:11:30.056Z,1.20
2019-04-25T16:13:58.741Z,0.70
2019-04-25T16:16:28.210Z,0.93
2019-04-25T16:18:57.266Z,1.23
2019-04-25T16:21:26.742Z,0.73
2019-04-25T16:23:56.011Z,0.73
2019-04-25T16:26:25.184Z,0.87
2019-04-25T16:28:53.708Z,0.70
2019-04-25T16:31:24.012Z,0.77
2019-04-25T16:33:52.623Z,0.80
2019-04-25T16:36:21.142Z,1.57
2019-04-25T16:38:49.814Z,1.00
2019-04-25T16:41:19.203Z,0.83
2019-04-25T16:43:49.442Z,0.80
2019-04-25T16:46:18.803Z,1.10
2019-04-25T16:48:47.252Z,0.60
2019-04-25T16:51:16.442Z,0.50
2019-04-25T16:53:44.923Z,0.67
2019-04-25T16:56:13.516Z,1.00
2019-04-25T16:58:41.972Z,0.50
2019-04-25T17:01:12.535Z,0.50
2019-04-25T17:03:41.535Z,0.60
2019-04-25T17:06:10.398Z,0.47
2019-04-25T17:08:38.994Z,0.80
2019-04-25T17:11:08.202Z,0.80
2019-04-25T17:13:38.373Z,0.53
2019-04-25T17:16:23.836Z,0.40
2019-04-25T17:19:06.047Z,0.50
2019-04-25T17:21:34.784Z,0.50
2019-04-25T17:24:03.917Z,0.50
2019-04-25T17:26:32.776Z,0.50
2019-04-25T17:29:03.010Z,0.50
2019-04-25T17:31:33.976Z,0.60
2019-04-25T17:34:10.473Z,0.50
2019-04-25T17:36:46.095Z,0.50
2019-04-25T17:39:26.771Z,0.50
2019-04-25T17:41:55.361Z,0.60
2019-04-25T17:44:23.895Z,0.40
2019-04-25T17:46:52.565Z,0.70
2019-04-25T17:49:21.027Z,0.50
2019-04-25T17:51:50.610Z,0.63
2019-04-25T17:54:19.109Z,1.03
2019-04-25T17:56:47.580Z,0.40
2019-04-25T17:59:16.026Z,0.60
2019-04-25T18:01:44.640Z,0.40
2019-04-25T18:04:13.126Z,0.90
2019-04-25T18:06:42.103Z,0.40
2019-04-25T18:09:11.229Z,0.70
2019-04-25T18:11:40.191Z,0.30
2019-04-25T18:14:08.880Z,0.50
2019-04-25T18:16:40.252Z,0.40
2019-04-25T18:19:10.523Z,0.37
2019-04-25T18:21:39.112Z,0.30
2019-04-25T18:24:15.233Z,0.40
2019-04-25T18:26:57.363Z,0.40
2019-04-25T18:29:26.950Z,0.40
2019-04-25T18:31:55.465Z,0.30
2019-04-25T18:34:35.962Z,0.40
2019-04-25T18:37:18.660Z,0.40
2019-04-25T18:39:51.483Z,0.40
2019-04-25T18:42:30.033Z,0.43
2019-04-25T18:44:58.512Z,0.30
2019-04-25T18:47:26.970Z,0.40
2019-04-25T18:49:55.425Z,0.40
2019-04-25T18:52:28.322Z,0.47
2019-04-25T18:55:13.225Z,0.63
2019-04-25T18:57:44.552Z,0.33
2019-04-25T19:00:31.976Z,0.40
2019-04-25T19:03:04.558Z,0.40
2019-04-25T19:05:34.699Z,0.40
2019-04-25T19:08:03.152Z,0.43
2019-04-25T19:10:31.736Z,0.30
2019-04-25T19:13:12.007Z,0.70
2019-04-25T19:15:30.748Z,0.40
2019-04-25T19:17:59.429Z,0.40
2019-04-25T19:20:27.896Z,0.40
2019-04-25T19:22:56.491Z,0.30
2019-04-25T19:25:25.104Z,0.30
2019-04-25T19:27:53.595Z,0.30
2019-04-25T19:30:22.293Z,0.40
2019-04-25T19:32:51.664Z,0.30
2019-04-25T19:35:20.193Z,0.50
2019-04-25T19:37:48.710Z,0.40
2019-04-25T19:40:19.068Z,0.30
2019-04-25T19:42:49.159Z,0.40
2019-04-25T19:45:17.721Z,0.40
2019-04-25T19:47:47.156Z,0.50
2019-04-25T19:50:15.909Z,0.40
2019-04-25T19:52:44.360Z,0.50
2019-04-25T19:55:13.512Z,0.70
2019-04-25T19:57:42.455Z,0.50
2019-04-25T20:00:12.073Z,0.70
2019-04-25T20:02:43.464Z,0.67
2019-04-25T20:05:23.541Z,0.60
2019-04-25T20:07:53.674Z,0.70
2019-04-25T20:10:23.792Z,0.73
2019-04-25T20:12:54.872Z,0.53
2019-04-25T20:15:23.686Z,0.90
2019-04-25T20:17:52.139Z,1.00
2019-04-25T20:20:20.931Z,0.73
2019-04-25T20:22:50.263Z,1.10
2019-04-25T20:25:19.178Z,0.90
2019-04-25T20:27:48.542Z,1.20
2019-04-25T20:30:19.067Z,0.77
2019-04-25T20:32:47.520Z,1.03
2019-04-25T20:35:15.972Z,0.50
2019-04-25T20:37:44.967Z,0.60
2019-04-25T20:40:14.633Z,0.63
2019-04-25T20:42:43.081Z,0.63
2019-04-25T20:45:12.687Z,0.60
2019-04-25T20:47:41.216Z,0.83
2019-04-25T20:50:11.177Z,1.00
2019-04-25T20:52:39.735Z,0.60
2019-04-25T20:55:08.328Z,0.73
2019-04-25T20:57:36.779Z,0.73
2019-04-25T21:00:08.079Z,1.13
2019-04-25T21:02:36.607Z,1.43
2019-04-25T21:05:06.290Z,1.40
2019-04-25T21:07:34.838Z,0.77
2019-04-25T21:10:03.600Z,0.90
2019-04-25T21:12:32.049Z,0.50
2019-04-25T21:15:02.249Z,0.90
2019-04-25T21:17:32.338Z,0.77
2019-04-25T21:20:02.985Z,0.90
2019-04-25T21:22:31.529Z,0.97
2019-04-25T21:25:00.052Z,0.70
2019-04-25T21:27:28.570Z,0.83
2019-04-25T21:29:57.762Z,0.70
2019-04-25T21:32:26.400Z,0.60
2019-04-25T21:34:55.297Z,0.70
2019-04-25T21:37:24.067Z,0.43
2019-04-25T21:39:57.275Z,0.80
2019-04-25T21:42:34.471Z,0.70
2019-04-25T21:45:03.340Z,0.60
2019-04-25T21:47:31.786Z,0.50
2019-04-25T21:50:00.916Z,0.70
2019-04-25T21:52:29.741Z,0.50
2019-04-25T21:54:59.546Z,0.73
2019-04-25T21:57:28.306Z,0.50
2019-04-25T22:00:02.851Z,0.67
2019-04-25T22:02:28.085Z,0.60
2019-04-25T22:04:56.916Z,0.90
2019-04-25T22:07:26.096Z,0.60
2019-04-25T22:09:55.585Z,0.90
2019-04-25T22:12:24.908Z,0.50
2019-04-25T22:14:53.436Z,0.60
2019-04-25T22:17:21.981Z,0.60
2019-04-25T22:19:51.551Z,0.60
2019-04-25T22:22:22.168Z,1.10
2019-04-25T22:24:50.677Z,1.10
2019-04-25T22:27:21.021Z,0.70
2019-04-25T22:29:51.174Z,0.60
2019-04-25T22:32:23.996Z,0.60
2019-04-25T22:35:06.310Z,0.80
2019-04-25T22:37:34.838Z,0.77
2019-04-25T22:40:05.352Z,0.90
2019-04-25T22:42:34.006Z,0.70
2019-04-25T22:45:02.521Z,0.60
2019-04-25T22:47:30.968Z,0.60
2019-04-25T22:50:00.271Z,0.70
2019-04-25T22:52:29.944Z,0.60
2019-04-25T22:54:58.388Z,0.67
2019-04-25T22:57:27.067Z,0.87
2019-04-25T22:59:55.515Z,0.67
2019-04-25T23:02:28.090Z,0.77
2019-04-25T23:05:09.193Z,0.70
2019-04-25T23:07:31.702Z,0.57
2019-04-25T23:10:00.566Z,0.60
2019-04-25T23:12:30.767Z,0.80
2019-04-25T23:14:59.416Z,0.73
2019-04-25T23:17:27.844Z,0.90
2019-04-25T23:19:56.670Z,1.07
2019-04-25T23:22:25.122Z,0.60
2019-04-25T23:25:05.951Z,0.70
2019-04-25T23:27:42.260Z,0.90
2019-04-25T23:30:13.247Z,0.60
2019-04-25T23:32:41.738Z,0.83
2019-04-25T23:35:24.291Z,0.87
2019-04-25T23:37:40.658Z,0.90
2019-04-25T23:40:09.534Z,1.13
2019-04-25T23:42:38.098Z,0.77
2019-04-25T23:45:08.146Z,1.20
2019-04-25T23:47:36.658Z,1.47
2019-04-25T23:50:07.669Z,1.30
2019-04-25T23:52:37.365Z,2.07
2019-04-25T23:55:06.953Z,1.70
2019-04-25T23:57:36.629Z,1.37
